sensor_id;sensor_type;location;lat;lon;timestamp;P1;durP1;ratioP1;P2;durP2;ratioP2
10761;SDS011;5433;50.862;4.320;2024-03-29T00:00:51;2.10;;;1.00;;
10761;SDS011;5433;50.862;4.320;2024-03-29T00:03:17;2.22;;;0.88;;
10761;SDS011;5433;50.862;4.320;2024-03-29T00:05:43;2.50;;;1.00;;
10761;SDS011;5433;50.862;4.320;2024-03-29T00:08:10;4.30;;;1.10;;
10761;SDS011;5433;50.862;4.320;2024-03-29T00:10:36;3.55;;;1.00;;
10761;SDS011;5433;50.862;4.320;2024-03-29T00:13:02;3.13;;;0.73;;
10761;SDS011;5433;50.862;4.320;2024-03-29T00:15:28;2.25;;;0.90;;
10761;SDS011;5433;50.862;4.320;2024-03-29T00:17:54;3.83;;;1.10;;
10761;SDS011;5433;50.862;4.320;2024-03-29T00:20:20;3.03;;;1.02;;
10761;SDS011;5433;50.862;4.320;2024-03-29T00:22:46;4.03;;;1.10;;
10761;SDS011;5433;50.862;4.320;2024-03-29T00:25:12;1.73;;;0.90;;
10761;SDS011;5433;50.862;4.320;2024-03-29T00:27:38;4.72;;;1.30;;
10761;SDS011;5433;50.862;4.320;2024-03-29T00:30:04;4.30;;;1.10;;
10761;SDS011;5433;50.862;4.320;2024-03-29T00:32:30;3.78;;;1.00;;
10761;SDS011;5433;50.862;4.320;2024-03-29T00:34:56;3.10;;;1.08;;
10761;SDS011;5433;50.862;4.320;2024-03-29T00:37:23;3.78;;;1.00;;
10761;SDS011;5433;50.862;4.320;2024-03-29T00:39:49;3.28;;;0.90;;
10761;SDS011;5433;50.862;4.320;2024-03-29T00:42:15;2.10;;;0.98;;
10761;SDS011;5433;50.862;4.320;2024-03-29T00:44:42;1.77;;;0.80;;
10761;SDS011;5433;50.862;4.320;2024-03-29T00:47:08;2.28;;;0.80;;
10761;SDS011;5433;50.862;4.320;2024-03-29T00:49:34;2.15;;;1.00;;
10761;SDS011;5433;50.862;4.320;2024-03-29T00:52:01;2.17;;;0.90;;
10761;SDS011;5433;50.862;4.320;2024-03-29T00:54:27;2.97;;;0.80;;
10761;SDS011;5433;50.862;4.320;2024-03-29T00:56:53;2.88;;;0.90;;
10761;SDS011;5433;50.862;4.320;2024-03-29T00:59:19;3.10;;;0.90;;
10761;SDS011;5433;50.862;4.320;2024-03-29T01:01:46;2.60;;;1.00;;
10761;SDS011;5433;50.862;4.320;2024-03-29T01:04:12;3.78;;;0.88;;
10761;SDS011;5433;50.862;4.320;2024-03-29T01:06:39;3.70;;;1.20;;
10761;SDS011;5433;50.862;4.320;2024-03-29T01:09:05;4.15;;;1.10;;
10761;SDS011;5433;50.862;4.320;2024-03-29T01:11:31;2.03;;;0.88;;
10761;SDS011;5433;50.862;4.320;2024-03-29T01:13:57;3.63;;;0.90;;
10761;SDS011;5433;50.862;4.320;2024-03-29T01:16:23;1.88;;;0.80;;
10761;SDS011;5433;50.862;4.320;2024-03-29T01:18:49;4.10;;;0.80;;
10761;SDS011;5433;50.862;4.320;2024-03-29T01:21:17;2.10;;;0.80;;
10761;SDS011;5433;50.862;4.320;2024-03-29T01:23:43;2.25;;;0.80;;
10761;SDS011;5433;50.862;4.320;2024-03-29T01:26:09;2.17;;;0.70;;
10761;SDS011;5433;50.862;4.320;2024-03-29T01:28:39;2.28;;;1.00;;
10761;SDS011;5433;50.862;4.320;2024-03-29T01:31:05;2.08;;;0.90;;
10761;SDS011;5433;50.862;4.320;2024-03-29T01:33:31;2.85;;;0.80;;
10761;SDS011;5433;50.862;4.320;2024-03-29T01:36:01;3.92;;;0.90;;
10761;SDS011;5433;50.862;4.320;2024-03-29T01:38:28;2.05;;;0.75;;
10761;SDS011;5433;50.862;4.320;2024-03-29T01:40:54;2.80;;;0.80;;
10761;SDS011;5433;50.862;4.320;2024-03-29T01:43:20;2.10;;;0.85;;
10761;SDS011;5433;50.862;4.320;2024-03-29T01:45:47;2.05;;;0.80;;
10761;SDS011;5433;50.862;4.320;2024-03-29T01:48:13;2.30;;;1.10;;
10761;SDS011;5433;50.862;4.320;2024-03-29T01:50:40;2.05;;;0.82;;
10761;SDS011;5433;50.862;4.320;2024-03-29T01:53:07;1.83;;;0.60;;
10761;SDS011;5433;50.862;4.320;2024-03-29T01:55:34;1.40;;;0.80;;
10761;SDS011;5433;50.862;4.320;2024-03-29T01:58:01;1.45;;;0.57;;
10761;SDS011;5433;50.862;4.320;2024-03-29T02:00:27;1.27;;;0.70;;
10761;SDS011;5433;50.862;4.320;2024-03-29T02:02:53;0.80;;;0.32;;
10761;SDS011;5433;50.862;4.320;2024-03-29T02:05:19;1.05;;;0.45;;
10761;SDS011;5433;50.862;4.320;2024-03-29T02:07:45;1.38;;;0.40;;
10761;SDS011;5433;50.862;4.320;2024-03-29T02:10:13;0.80;;;0.40;;
10761;SDS011;5433;50.862;4.320;2024-03-29T02:12:39;1.17;;;0.30;;
10761;SDS011;5433;50.862;4.320;2024-03-29T02:15:05;0.65;;;0.47;;
10761;SDS011;5433;50.862;4.320;2024-03-29T02:17:32;1.27;;;0.43;;
10761;SDS011;5433;50.862;4.320;2024-03-29T02:19:58;0.47;;;0.32;;
10761;SDS011;5433;50.862;4.320;2024-03-29T02:22:24;0.95;;;0.38;;
10761;SDS011;5433;50.862;4.320;2024-03-29T02:24:51;0.55;;;0.30;;
10761;SDS011;5433;50.862;4.320;2024-03-29T02:27:17;0.68;;;0.50;;
10761;SDS011;5433;50.862;4.320;2024-03-29T02:29:43;1.52;;;0.45;;
10761;SDS011;5433;50.862;4.320;2024-03-29T02:32:09;0.68;;;0.50;;
10761;SDS011;5433;50.862;4.320;2024-03-29T02:34:38;0.95;;;0.68;;
10761;SDS011;5433;50.862;4.320;2024-03-29T02:37:04;3.03;;;0.65;;
10761;SDS011;5433;50.862;4.320;2024-03-29T02:39:31;0.82;;;0.50;;
10761;SDS011;5433;50.862;4.320;2024-03-29T02:41:57;2.53;;;0.80;;
10761;SDS011;5433;50.862;4.320;2024-03-29T02:44:23;2.38;;;0.90;;
10761;SDS011;5433;50.862;4.320;2024-03-29T02:46:49;1.42;;;0.75;;
10761;SDS011;5433;50.862;4.320;2024-03-29T02:49:15;3.42;;;0.90;;
10761;SDS011;5433;50.862;4.320;2024-03-29T02:51:41;1.63;;;0.80;;
10761;SDS011;5433;50.862;4.320;2024-03-29T02:54:07;2.20;;;1.00;;
10761;SDS011;5433;50.862;4.320;2024-03-29T02:56:33;2.13;;;1.27;;
10761;SDS011;5433;50.862;4.320;2024-03-29T02:58:59;2.05;;;1.30;;
10761;SDS011;5433;50.862;4.320;2024-03-29T03:01:24;3.58;;;1.65;;
10761;SDS011;5433;50.862;4.320;2024-03-29T03:03:50;2.67;;;1.50;;
10761;SDS011;5433;50.862;4.320;2024-03-29T03:06:16;3.50;;;2.03;;
10761;SDS011;5433;50.862;4.320;2024-03-29T03:08:43;3.42;;;1.83;;
10761;SDS011;5433;50.862;4.320;2024-03-29T03:11:27;2.42;;;1.13;;
10761;SDS011;5433;50.862;4.320;2024-03-29T03:13:53;3.10;;;1.40;;
10761;SDS011;5433;50.862;4.320;2024-03-29T03:16:19;3.33;;;1.05;;
10761;SDS011;5433;50.862;4.320;2024-03-29T03:18:45;3.00;;;1.00;;
10761;SDS011;5433;50.862;4.320;2024-03-29T03:21:11;2.58;;;0.98;;
10761;SDS011;5433;50.862;4.320;2024-03-29T03:23:37;1.38;;;0.90;;
10761;SDS011;5433;50.862;4.320;2024-03-29T03:26:03;2.95;;;1.10;;
10761;SDS011;5433;50.862;4.320;2024-03-29T03:28:29;2.33;;;0.85;;
10761;SDS011;5433;50.862;4.320;2024-03-29T03:30:55;1.85;;;0.90;;
10761;SDS011;5433;50.862;4.320;2024-03-29T03:33:21;1.45;;;0.70;;
10761;SDS011;5433;50.862;4.320;2024-03-29T03:35:48;1.15;;;0.70;;
10761;SDS011;5433;50.862;4.320;2024-03-29T03:38:14;2.08;;;0.90;;
10761;SDS011;5433;50.862;4.320;2024-03-29T03:40:41;3.50;;;1.00;;
10761;SDS011;5433;50.862;4.320;2024-03-29T03:43:07;4.05;;;1.00;;
10761;SDS011;5433;50.862;4.320;2024-03-29T03:45:34;2.33;;;1.00;;
10761;SDS011;5433;50.862;4.320;2024-03-29T03:48:01;2.90;;;0.95;;
10761;SDS011;5433;50.862;4.320;2024-03-29T03:50:27;2.38;;;1.13;;
10761;SDS011;5433;50.862;4.320;2024-03-29T03:52:52;4.13;;;1.10;;
10761;SDS011;5433;50.862;4.320;2024-03-29T03:55:18;1.52;;;1.15;;
10761;SDS011;5433;50.862;4.320;2024-03-29T03:57:45;2.00;;;0.90;;
10761;SDS011;5433;50.862;4.320;2024-03-29T04:00:11;3.33;;;0.90;;
10761;SDS011;5433;50.862;4.320;2024-03-29T04:02:37;4.22;;;1.00;;
10761;SDS011;5433;50.862;4.320;2024-03-29T04:05:03;2.05;;;0.85;;
10761;SDS011;5433;50.862;4.320;2024-03-29T04:07:29;2.55;;;0.88;;
10761;SDS011;5433;50.862;4.320;2024-03-29T04:09:55;2.00;;;0.80;;
10761;SDS011;5433;50.862;4.320;2024-03-29T04:12:21;1.52;;;0.82;;
10761;SDS011;5433;50.862;4.320;2024-03-29T04:14:47;2.15;;;0.73;;
10761;SDS011;5433;50.862;4.320;2024-03-29T04:17:13;0.80;;;0.60;;
10761;SDS011;5433;50.862;4.320;2024-03-29T04:19:39;1.67;;;0.70;;
10761;SDS011;5433;50.862;4.320;2024-03-29T04:22:05;0.60;;;0.50;;
10761;SDS011;5433;50.862;4.320;2024-03-29T04:24:31;1.38;;;0.85;;
10761;SDS011;5433;50.862;4.320;2024-03-29T04:26:57;2.95;;;0.73;;
10761;SDS011;5433;50.862;4.320;2024-03-29T04:29:23;1.27;;;0.77;;
10761;SDS011;5433;50.862;4.320;2024-03-29T04:31:49;1.77;;;0.70;;
10761;SDS011;5433;50.862;4.320;2024-03-29T04:34:15;0.90;;;0.60;;
10761;SDS011;5433;50.862;4.320;2024-03-29T04:36:41;2.50;;;0.73;;
10761;SDS011;5433;50.862;4.320;2024-03-29T04:39:07;0.80;;;0.60;;
10761;SDS011;5433;50.862;4.320;2024-03-29T04:41:33;1.65;;;0.77;;
10761;SDS011;5433;50.862;4.320;2024-03-29T04:44:02;1.25;;;0.55;;
10761;SDS011;5433;50.862;4.320;2024-03-29T04:46:29;0.88;;;0.60;;
10761;SDS011;5433;50.862;4.320;2024-03-29T04:48:55;0.70;;;0.57;;
10761;SDS011;5433;50.862;4.320;2024-03-29T04:51:22;1.42;;;0.60;;
10761;SDS011;5433;50.862;4.320;2024-03-29T04:53:48;1.08;;;0.57;;
10761;SDS011;5433;50.862;4.320;2024-03-29T04:56:13;2.75;;;0.70;;
10761;SDS011;5433;50.862;4.320;2024-03-29T04:58:40;0.50;;;0.50;;
10761;SDS011;5433;50.862;4.320;2024-03-29T05:01:06;0.68;;;0.60;;
10761;SDS011;5433;50.862;4.320;2024-03-29T05:03:32;0.75;;;0.57;;
10761;SDS011;5433;50.862;4.320;2024-03-29T05:05:58;0.75;;;0.60;;
10761;SDS011;5433;50.862;4.320;2024-03-29T05:08:24;1.77;;;0.65;;
10761;SDS011;5433;50.862;4.320;2024-03-29T05:10:50;1.33;;;0.70;;
10761;SDS011;5433;50.862;4.320;2024-03-29T05:13:17;1.13;;;0.82;;
10761;SDS011;5433;50.862;4.320;2024-03-29T05:15:44;2.05;;;0.73;;
10761;SDS011;5433;50.862;4.320;2024-03-29T05:18:10;1.27;;;0.70;;
10761;SDS011;5433;50.862;4.320;2024-03-29T05:20:37;3.03;;;0.80;;
10761;SDS011;5433;50.862;4.320;2024-03-29T05:23:05;1.38;;;0.52;;
10761;SDS011;5433;50.862;4.320;2024-03-29T05:25:31;1.15;;;0.70;;
10761;SDS011;5433;50.862;4.320;2024-03-29T05:27:57;0.98;;;0.73;;
10761;SDS011;5433;50.862;4.320;2024-03-29T05:30:23;2.05;;;0.80;;
10761;SDS011;5433;50.862;4.320;2024-03-29T05:32:49;1.27;;;0.50;;
10761;SDS011;5433;50.862;4.320;2024-03-29T05:35:15;1.23;;;0.70;;
10761;SDS011;5433;50.862;4.320;2024-03-29T05:37:42;1.15;;;0.70;;
10761;SDS011;5433;50.862;4.320;2024-03-29T05:40:11;1.75;;;0.85;;
10761;SDS011;5433;50.862;4.320;2024-03-29T05:42:38;2.10;;;1.00;;
10761;SDS011;5433;50.862;4.320;2024-03-29T05:45:04;1.83;;;0.77;;
10761;SDS011;5433;50.862;4.320;2024-03-29T05:47:30;1.23;;;0.75;;
10761;SDS011;5433;50.862;4.320;2024-03-29T05:49:56;2.30;;;0.90;;
10761;SDS011;5433;50.862;4.320;2024-03-29T05:52:22;1.58;;;0.90;;
10761;SDS011;5433;50.862;4.320;2024-03-29T05:54:48;2.88;;;0.90;;
10761;SDS011;5433;50.862;4.320;2024-03-29T05:57:15;1.65;;;0.75;;
10761;SDS011;5433;50.862;4.320;2024-03-29T05:59:41;2.08;;;0.80;;
10761;SDS011;5433;50.862;4.320;2024-03-29T06:02:07;2.63;;;0.80;;
10761;SDS011;5433;50.862;4.320;2024-03-29T06:04:33;2.85;;;1.00;;
10761;SDS011;5433;50.862;4.320;2024-03-29T06:07:00;1.98;;;0.90;;
10761;SDS011;5433;50.862;4.320;2024-03-29T06:09:26;1.70;;;0.80;;
10761;SDS011;5433;50.862;4.320;2024-03-29T06:11:53;2.30;;;0.80;;
10761;SDS011;5433;50.862;4.320;2024-03-29T06:14:19;1.65;;;0.80;;
10761;SDS011;5433;50.862;4.320;2024-03-29T06:17:03;1.75;;;0.80;;
10761;SDS011;5433;50.862;4.320;2024-03-29T06:19:47;1.38;;;0.70;;
10761;SDS011;5433;50.862;4.320;2024-03-29T06:22:15;1.30;;;0.80;;
10761;SDS011;5433;50.862;4.320;2024-03-29T06:24:42;1.73;;;0.85;;
10761;SDS011;5433;50.862;4.320;2024-03-29T06:27:12;1.70;;;1.00;;
10761;SDS011;5433;50.862;4.320;2024-03-29T06:29:41;2.65;;;1.40;;
10761;SDS011;5433;50.862;4.320;2024-03-29T06:32:07;2.63;;;1.23;;
10761;SDS011;5433;50.862;4.320;2024-03-29T06:34:33;2.30;;;0.90;;
10761;SDS011;5433;50.862;4.320;2024-03-29T06:36:59;4.35;;;1.20;;
10761;SDS011;5433;50.862;4.320;2024-03-29T06:39:25;2.63;;;1.00;;
10761;SDS011;5433;50.862;4.320;2024-03-29T06:41:51;1.50;;;1.10;;
10761;SDS011;5433;50.862;4.320;2024-03-29T06:44:17;2.67;;;1.20;;
10761;SDS011;5433;50.862;4.320;2024-03-29T06:46:43;2.22;;;1.00;;
10761;SDS011;5433;50.862;4.320;2024-03-29T06:49:09;2.65;;;1.30;;
10761;SDS011;5433;50.862;4.320;2024-03-29T06:51:35;2.92;;;1.10;;
10761;SDS011;5433;50.862;4.320;2024-03-29T06:54:01;1.92;;;1.20;;
10761;SDS011;5433;50.862;4.320;2024-03-29T06:56:28;3.00;;;1.30;;
10761;SDS011;5433;50.862;4.320;2024-03-29T06:58:55;2.10;;;1.15;;
10761;SDS011;5433;50.862;4.320;2024-03-29T07:01:21;7.20;;;2.67;;
10761;SDS011;5433;50.862;4.320;2024-03-29T07:03:47;2.85;;;1.23;;
10761;SDS011;5433;50.862;4.320;2024-03-29T07:06:13;3.17;;;1.40;;
10761;SDS011;5433;50.862;4.320;2024-03-29T07:08:39;3.65;;;1.40;;
10761;SDS011;5433;50.862;4.320;2024-03-29T07:11:05;3.25;;;1.55;;
10761;SDS011;5433;50.862;4.320;2024-03-29T07:13:31;2.92;;;1.60;;
10761;SDS011;5433;50.862;4.320;2024-03-29T07:15:57;2.17;;;1.48;;
10761;SDS011;5433;50.862;4.320;2024-03-29T07:18:23;7.18;;;1.70;;
10761;SDS011;5433;50.862;4.320;2024-03-29T07:20:49;3.42;;;1.60;;
10761;SDS011;5433;50.862;4.320;2024-03-29T07:23:15;3.70;;;1.63;;
10761;SDS011;5433;50.862;4.320;2024-03-29T07:25:45;4.53;;;1.85;;
10761;SDS011;5433;50.862;4.320;2024-03-29T07:28:11;2.78;;;1.50;;
10761;SDS011;5433;50.862;4.320;2024-03-29T07:30:41;5.65;;;1.65;;
10761;SDS011;5433;50.862;4.320;2024-03-29T07:33:07;3.70;;;1.90;;
10761;SDS011;5433;50.862;4.320;2024-03-29T07:35:34;3.05;;;1.50;;
10761;SDS011;5433;50.862;4.320;2024-03-29T07:38:00;5.45;;;1.70;;
10761;SDS011;5433;50.862;4.320;2024-03-29T07:40:26;2.22;;;1.50;;
10761;SDS011;5433;50.862;4.320;2024-03-29T07:42:52;3.53;;;1.73;;
10761;SDS011;5433;50.862;4.320;2024-03-29T07:45:18;3.30;;;1.83;;
10761;SDS011;5433;50.862;4.320;2024-03-29T07:47:44;3.90;;;2.13;;
10761;SDS011;5433;50.862;4.320;2024-03-29T07:50:14;2.92;;;2.15;;
10761;SDS011;5433;50.862;4.320;2024-03-29T07:52:41;2.55;;;1.65;;
10761;SDS011;5433;50.862;4.320;2024-03-29T07:55:07;4.03;;;1.80;;
10761;SDS011;5433;50.862;4.320;2024-03-29T07:57:35;5.10;;;2.22;;
10761;SDS011;5433;50.862;4.320;2024-03-29T08:00:01;2.63;;;1.95;;
10761;SDS011;5433;50.862;4.320;2024-03-29T08:02:27;4.38;;;1.80;;
10761;SDS011;5433;50.862;4.320;2024-03-29T08:04:55;2.97;;;1.95;;
10761;SDS011;5433;50.862;4.320;2024-03-29T08:07:21;5.53;;;2.00;;
10761;SDS011;5433;50.862;4.320;2024-03-29T08:09:47;4.40;;;2.28;;
10761;SDS011;5433;50.862;4.320;2024-03-29T08:12:13;3.50;;;1.95;;
10761;SDS011;5433;50.862;4.320;2024-03-29T08:14:39;3.33;;;2.13;;
10761;SDS011;5433;50.862;4.320;2024-03-29T08:17:05;4.88;;;2.10;;
10761;SDS011;5433;50.862;4.320;2024-03-29T08:19:34;3.15;;;1.92;;
10761;SDS011;5433;50.862;4.320;2024-03-29T08:22:00;5.18;;;2.00;;
10761;SDS011;5433;50.862;4.320;2024-03-29T08:24:26;3.67;;;2.00;;
10761;SDS011;5433;50.862;4.320;2024-03-29T08:26:52;4.72;;;2.15;;
10761;SDS011;5433;50.862;4.320;2024-03-29T08:29:18;3.20;;;2.00;;
10761;SDS011;5433;50.862;4.320;2024-03-29T08:31:44;4.68;;;2.03;;
10761;SDS011;5433;50.862;4.320;2024-03-29T08:34:10;3.97;;;2.08;;
10761;SDS011;5433;50.862;4.320;2024-03-29T08:36:39;8.55;;;2.70;;
10761;SDS011;5433;50.862;4.320;2024-03-29T08:39:05;4.88;;;2.65;;
10761;SDS011;5433;50.862;4.320;2024-03-29T08:41:31;3.58;;;2.80;;
10761;SDS011;5433;50.862;4.320;2024-03-29T08:43:57;4.25;;;2.60;;
10761;SDS011;5433;50.862;4.320;2024-03-29T08:46:23;3.97;;;2.72;;
10761;SDS011;5433;50.862;4.320;2024-03-29T08:48:49;4.53;;;2.30;;
10761;SDS011;5433;50.862;4.320;2024-03-29T08:51:15;5.80;;;2.80;;
10761;SDS011;5433;50.862;4.320;2024-03-29T08:53:41;6.50;;;2.80;;
10761;SDS011;5433;50.862;4.320;2024-03-29T08:56:07;4.07;;;2.38;;
10761;SDS011;5433;50.862;4.320;2024-03-29T08:58:33;3.95;;;2.55;;
10761;SDS011;5433;50.862;4.320;2024-03-29T09:00:59;4.20;;;2.25;;
10761;SDS011;5433;50.862;4.320;2024-03-29T09:03:29;3.30;;;2.05;;
10761;SDS011;5433;50.862;4.320;2024-03-29T09:05:55;4.35;;;2.38;;
10761;SDS011;5433;50.862;4.320;2024-03-29T09:08:21;3.50;;;2.20;;
10761;SDS011;5433;50.862;4.320;2024-03-29T09:10:47;3.80;;;2.28;;
10761;SDS011;5433;50.862;4.320;2024-03-29T09:13:13;2.47;;;1.80;;
10761;SDS011;5433;50.862;4.320;2024-03-29T09:15:39;3.88;;;2.00;;
10761;SDS011;5433;50.862;4.320;2024-03-29T09:18:05;3.85;;;2.10;;
10761;SDS011;5433;50.862;4.320;2024-03-29T09:23:51;4.07;;;2.30;;
10761;SDS011;5433;50.862;4.320;2024-03-29T09:26:18;3.90;;;2.53;;
10761;SDS011;5433;50.862;4.320;2024-03-29T09:28:44;5.18;;;2.88;;
10761;SDS011;5433;50.862;4.320;2024-03-29T09:31:10;4.30;;;2.70;;
10761;SDS011;5433;50.862;4.320;2024-03-29T09:33:36;2.92;;;2.42;;
10761;SDS011;5433;50.862;4.320;2024-03-29T09:36:02;3.55;;;2.50;;
10761;SDS011;5433;50.862;4.320;2024-03-29T09:38:28;4.15;;;2.28;;
10761;SDS011;5433;50.862;4.320;2024-03-29T09:41:15;4.45;;;2.42;;
10761;SDS011;5433;50.862;4.320;2024-03-29T09:43:43;3.00;;;2.00;;
10761;SDS011;5433;50.862;4.320;2024-03-29T09:46:13;2.67;;;1.42;;
10761;SDS011;5433;50.862;4.320;2024-03-29T09:48:39;3.30;;;1.50;;
10761;SDS011;5433;50.862;4.320;2024-03-29T09:51:06;2.40;;;1.70;;
10761;SDS011;5433;50.862;4.320;2024-03-29T09:53:36;3.17;;;1.60;;
10761;SDS011;5433;50.862;4.320;2024-03-29T09:56:05;2.65;;;1.90;;
10761;SDS011;5433;50.862;4.320;2024-03-29T09:58:34;2.40;;;1.60;;
10761;SDS011;5433;50.862;4.320;2024-03-29T10:01:02;3.15;;;1.80;;
10761;SDS011;5433;50.862;4.320;2024-03-29T10:03:29;2.65;;;2.03;;
10761;SDS011;5433;50.862;4.320;2024-03-29T10:05:59;2.65;;;1.92;;
10761;SDS011;5433;50.862;4.320;2024-03-29T10:08:28;2.17;;;1.70;;
10761;SDS011;5433;50.862;4.320;2024-03-29T10:10:55;2.30;;;1.63;;
10761;SDS011;5433;50.862;4.320;2024-03-29T10:13:21;1.63;;;1.50;;
10761;SDS011;5433;50.862;4.320;2024-03-29T10:15:53;3.40;;;1.58;;
10761;SDS011;5433;50.862;4.320;2024-03-29T10:21:04;2.67;;;1.60;;
10761;SDS011;5433;50.862;4.320;2024-03-29T10:23:31;2.42;;;1.50;;
10761;SDS011;5433;50.862;4.320;2024-03-29T10:25:57;2.03;;;1.10;;
10761;SDS011;5433;50.862;4.320;2024-03-29T10:28:27;1.17;;;1.08;;
10761;SDS011;5433;50.862;4.320;2024-03-29T10:30:56;1.23;;;1.02;;
10761;SDS011;5433;50.862;4.320;2024-03-29T10:33:22;1.50;;;1.05;;
10761;SDS011;5433;50.862;4.320;2024-03-29T10:35:48;1.88;;;1.08;;
10761;SDS011;5433;50.862;4.320;2024-03-29T10:38:14;2.28;;;0.93;;
10761;SDS011;5433;50.862;4.320;2024-03-29T10:40:41;1.67;;;0.88;;
10761;SDS011;5433;50.862;4.320;2024-03-29T10:43:08;2.03;;;0.90;;
10761;SDS011;5433;50.862;4.320;2024-03-29T10:45:37;1.70;;;0.80;;
10761;SDS011;5433;50.862;4.320;2024-03-29T10:48:04;1.10;;;1.00;;
10761;SDS011;5433;50.862;4.320;2024-03-29T10:50:34;1.65;;;0.70;;
10761;SDS011;5433;50.862;4.320;2024-03-29T10:53:00;2.13;;;0.70;;
10761;SDS011;5433;50.862;4.320;2024-03-29T10:55:32;0.75;;;0.70;;
10761;SDS011;5433;50.862;4.320;2024-03-29T10:57:58;0.70;;;0.70;;
10761;SDS011;5433;50.862;4.320;2024-03-29T11:00:25;2.15;;;0.88;;
10761;SDS011;5433;50.862;4.320;2024-03-29T11:03:12;1.75;;;0.70;;
10761;SDS011;5433;50.862;4.320;2024-03-29T11:05:41;1.35;;;0.70;;
10761;SDS011;5433;50.862;4.320;2024-03-29T11:08:11;3.05;;;0.90;;
10761;SDS011;5433;50.862;4.320;2024-03-29T11:10:41;0.90;;;0.80;;
10761;SDS011;5433;50.862;4.320;2024-03-29T11:13:16;0.82;;;0.80;;
10761;SDS011;5433;50.862;4.320;2024-03-29T11:15:45;0.85;;;0.60;;
10761;SDS011;5433;50.862;4.320;2024-03-29T11:18:11;2.60;;;1.00;;
10761;SDS011;5433;50.862;4.320;2024-03-29T11:20:37;2.00;;;0.70;;
10761;SDS011;5433;50.862;4.320;2024-03-29T11:23:09;2.15;;;0.80;;
10761;SDS011;5433;50.862;4.320;2024-03-29T11:25:40;0.65;;;0.60;;
10761;SDS011;5433;50.862;4.320;2024-03-29T11:28:07;1.05;;;0.80;;
10761;SDS011;5433;50.862;4.320;2024-03-29T11:30:41;1.60;;;0.80;;
10761;SDS011;5433;50.862;4.320;2024-03-29T11:33:07;0.85;;;0.65;;
10761;SDS011;5433;50.862;4.320;2024-03-29T11:35:38;7.53;;;5.78;;
10761;SDS011;5433;50.862;4.320;2024-03-29T11:38:04;1.08;;;0.60;;
10761;SDS011;5433;50.862;4.320;2024-03-29T11:40:30;1.90;;;0.70;;
10761;SDS011;5433;50.862;4.320;2024-03-29T11:42:56;0.73;;;0.65;;
10761;SDS011;5433;50.862;4.320;2024-03-29T11:45:23;0.57;;;0.57;;
10761;SDS011;5433;50.862;4.320;2024-03-29T11:47:55;1.10;;;0.70;;
10761;SDS011;5433;50.862;4.320;2024-03-29T11:50:22;0.70;;;0.70;;
10761;SDS011;5433;50.862;4.320;2024-03-29T11:52:48;0.93;;;0.80;;
10761;SDS011;5433;50.862;4.320;2024-03-29T11:55:14;1.52;;;0.90;;
10761;SDS011;5433;50.862;4.320;2024-03-29T11:57:40;1.58;;;0.70;;
10761;SDS011;5433;50.862;4.320;2024-03-29T12:00:06;0.90;;;0.60;;
10761;SDS011;5433;50.862;4.320;2024-03-29T12:02:34;2.38;;;1.70;;
10761;SDS011;5433;50.862;4.320;2024-03-29T12:05:05;0.60;;;0.60;;
10761;SDS011;5433;50.862;4.320;2024-03-29T12:07:31;1.42;;;0.70;;
10761;SDS011;5433;50.862;4.320;2024-03-29T12:09:57;1.15;;;0.70;;
10761;SDS011;5433;50.862;4.320;2024-03-29T12:12:23;1.27;;;0.80;;
10761;SDS011;5433;50.862;4.320;2024-03-29T12:14:49;1.20;;;0.90;;
10761;SDS011;5433;50.862;4.320;2024-03-29T12:17:15;0.80;;;0.70;;
10761;SDS011;5433;50.862;4.320;2024-03-29T12:19:41;0.60;;;0.60;;
10761;SDS011;5433;50.862;4.320;2024-03-29T12:22:09;1.85;;;0.90;;
10761;SDS011;5433;50.862;4.320;2024-03-29T12:24:35;0.60;;;0.60;;
10761;SDS011;5433;50.862;4.320;2024-03-29T12:27:01;1.02;;;0.80;;
10761;SDS011;5433;50.862;4.320;2024-03-29T12:29:28;0.80;;;0.80;;
10761;SDS011;5433;50.862;4.320;2024-03-29T12:31:58;3.83;;;0.80;;
10761;SDS011;5433;50.862;4.320;2024-03-29T12:34:24;1.00;;;0.60;;
10761;SDS011;5433;50.862;4.320;2024-03-29T12:36:50;1.20;;;0.70;;
10761;SDS011;5433;50.862;4.320;2024-03-29T12:39:16;1.80;;;0.95;;
10761;SDS011;5433;50.862;4.320;2024-03-29T12:41:42;0.70;;;0.70;;
10761;SDS011;5433;50.862;4.320;2024-03-29T12:44:09;0.98;;;0.75;;
10761;SDS011;5433;50.862;4.320;2024-03-29T12:46:35;3.05;;;0.88;;
10761;SDS011;5433;50.862;4.320;2024-03-29T12:49:02;3.17;;;0.77;;
10761;SDS011;5433;50.862;4.320;2024-03-29T12:51:28;2.33;;;0.70;;
10761;SDS011;5433;50.862;4.320;2024-03-29T12:53:54;1.27;;;0.68;;
10761;SDS011;5433;50.862;4.320;2024-03-29T12:56:25;1.70;;;0.60;;
10761;SDS011;5433;50.862;4.320;2024-03-29T12:58:51;0.70;;;0.70;;
10761;SDS011;5433;50.862;4.320;2024-03-29T13:01:17;1.27;;;0.70;;
10761;SDS011;5433;50.862;4.320;2024-03-29T13:03:43;1.85;;;0.60;;
10761;SDS011;5433;50.862;4.320;2024-03-29T13:06:09;2.67;;;0.65;;
10761;SDS011;5433;50.862;4.320;2024-03-29T13:08:35;1.13;;;0.80;;
10761;SDS011;5433;50.862;4.320;2024-03-29T13:11:02;1.02;;;0.70;;
10761;SDS011;5433;50.862;4.320;2024-03-29T13:13:28;0.73;;;0.70;;
10761;SDS011;5433;50.862;4.320;2024-03-29T13:15:54;1.40;;;0.80;;
10761;SDS011;5433;50.862;4.320;2024-03-29T13:18:20;1.30;;;0.75;;
10761;SDS011;5433;50.862;4.320;2024-03-29T13:20:46;1.25;;;0.75;;
10761;SDS011;5433;50.862;4.320;2024-03-29T13:23:12;3.25;;;0.63;;
10761;SDS011;5433;50.862;4.320;2024-03-29T13:25:39;1.65;;;0.95;;
10761;SDS011;5433;50.862;4.320;2024-03-29T13:28:05;1.17;;;0.70;;
10761;SDS011;5433;50.862;4.320;2024-03-29T13:30:32;2.05;;;0.80;;
10761;SDS011;5433;50.862;4.320;2024-03-29T13:32:58;2.10;;;1.00;;
10761;SDS011;5433;50.862;4.320;2024-03-29T13:35:24;0.70;;;0.70;;
10761;SDS011;5433;50.862;4.320;2024-03-29T13:37:50;0.88;;;0.68;;
10761;SDS011;5433;50.862;4.320;2024-03-29T13:40:21;0.75;;;0.60;;
10761;SDS011;5433;50.862;4.320;2024-03-29T13:42:47;0.93;;;0.70;;
10761;SDS011;5433;50.862;4.320;2024-03-29T13:45:16;2.10;;;0.60;;
10761;SDS011;5433;50.862;4.320;2024-03-29T13:47:43;1.38;;;0.70;;
10761;SDS011;5433;50.862;4.320;2024-03-29T13:50:11;0.85;;;0.68;;
10761;SDS011;5433;50.862;4.320;2024-03-29T13:52:40;1.10;;;0.70;;
10761;SDS011;5433;50.862;4.320;2024-03-29T13:55:06;0.40;;;0.40;;
10761;SDS011;5433;50.862;4.320;2024-03-29T13:57:32;2.97;;;0.77;;
10761;SDS011;5433;50.862;4.320;2024-03-29T13:59:58;1.70;;;0.60;;
10761;SDS011;5433;50.862;4.320;2024-03-29T14:02:25;1.13;;;0.50;;
10761;SDS011;5433;50.862;4.320;2024-03-29T14:04:52;4.00;;;0.70;;
10761;SDS011;5433;50.862;4.320;2024-03-29T14:07:18;1.23;;;0.55;;
10761;SDS011;5433;50.862;4.320;2024-03-29T14:09:45;0.88;;;0.70;;
10761;SDS011;5433;50.862;4.320;2024-03-29T14:12:11;2.78;;;0.80;;
10761;SDS011;5433;50.862;4.320;2024-03-29T14:14:38;1.00;;;0.65;;
10761;SDS011;5433;50.862;4.320;2024-03-29T14:17:04;0.82;;;0.77;;
10761;SDS011;5433;50.862;4.320;2024-03-29T14:19:32;2.45;;;0.82;;
10761;SDS011;5433;50.862;4.320;2024-03-29T14:21:59;2.50;;;0.85;;
10761;SDS011;5433;50.862;4.320;2024-03-29T14:24:25;1.50;;;0.70;;
10761;SDS011;5433;50.862;4.320;2024-03-29T14:26:52;3.33;;;0.80;;
10761;SDS011;5433;50.862;4.320;2024-03-29T14:29:18;1.45;;;0.80;;
10761;SDS011;5433;50.862;4.320;2024-03-29T14:31:47;1.13;;;0.68;;
10761;SDS011;5433;50.862;4.320;2024-03-29T14:34:13;2.35;;;0.70;;
10761;SDS011;5433;50.862;4.320;2024-03-29T14:36:39;1.15;;;0.77;;
10761;SDS011;5433;50.862;4.320;2024-03-29T14:39:05;2.72;;;0.70;;
10761;SDS011;5433;50.862;4.320;2024-03-29T14:41:34;1.38;;;0.80;;
10761;SDS011;5433;50.862;4.320;2024-03-29T14:44:02;1.67;;;0.70;;
10761;SDS011;5433;50.862;4.320;2024-03-29T14:46:28;2.88;;;0.82;;
10761;SDS011;5433;50.862;4.320;2024-03-29T14:48:54;1.55;;;0.70;;
10761;SDS011;5433;50.862;4.320;2024-03-29T14:51:20;1.27;;;0.50;;
10761;SDS011;5433;50.862;4.320;2024-03-29T14:53:46;1.83;;;0.70;;
10761;SDS011;5433;50.862;4.320;2024-03-29T14:56:21;2.45;;;0.80;;
10761;SDS011;5433;50.862;4.320;2024-03-29T14:58:48;1.27;;;0.75;;
10761;SDS011;5433;50.862;4.320;2024-03-29T15:01:14;0.90;;;0.70;;
10761;SDS011;5433;50.862;4.320;2024-03-29T15:03:40;1.58;;;0.90;;